createdAt,value
2022-10-01T00:00:29.435Z,91.17
2022-10-01T00:01:01.540Z,91.23
2022-10-01T00:01:34.101Z,91.24
2022-10-01T00:02:07.327Z,91.37
2022-10-01T00:02:39.815Z,91.35
2022-10-01T00:03:11.255Z,91.57
2022-10-01T00:03:43.334Z,91.69
2022-10-01T00:04:14.630Z,91.60
2022-10-01T00:04:46.002Z,91.79
2022-10-01T00:05:17.637Z,92.08
2022-10-01T00:06:10.297Z,91.74
2022-10-01T00:06:41.640Z,91.60
2022-10-01T00:07:15.099Z,91.46
2022-10-01T00:07:47.242Z,91.35
2022-10-01T00:08:18.556Z,91.68
2022-10-01T00:08:50.649Z,91.71
2022-10-01T00:09:21.972Z,91.95
2022-10-01T00:09:53.272Z,91.88
2022-10-01T00:10:25.492Z,91.97
2022-10-01T00:10:58.059Z,91.80
2022-10-01T00:11:29.806Z,91.69
2022-10-01T00:12:01.278Z,91.93
2022-10-01T00:12:32.883Z,91.82
2022-10-01T00:13:04.247Z,92.37
2022-10-01T00:13:36.387Z,92.28
2022-10-01T00:14:08.306Z,92.17
2022-10-01T00:14:39.671Z,91.76
2022-10-01T00:15:13.576Z,92.48
2022-10-01T00:15:45.089Z,92.01
2022-10-01T00:16:20.179Z,92.12
2022-10-01T00:16:51.717Z,92.06
2022-10-01T00:17:23.127Z,92.21
2022-10-01T00:17:54.688Z,92.50
2022-10-01T00:18:26.071Z,92.27
2022-10-01T00:18:57.989Z,92.47
2022-10-01T00:19:29.463Z,92.42
2022-10-01T00:20:01.084Z,92.51
2022-10-01T00:20:32.397Z,92.38
2022-10-01T00:21:18.100Z,92.56
2022-10-01T00:21:49.663Z,92.46
2022-10-01T00:22:21.040Z,92.08
2022-10-01T00:22:52.814Z,92.64
2022-10-01T00:23:24.129Z,92.23
2022-10-01T00:24:04.656Z,92.49
2022-10-01T00:24:37.601Z,92.78
2022-10-01T00:25:09.069Z,92.46
2022-10-01T00:25:41.064Z,92.32
2022-10-01T00:26:25.443Z,92.39
2022-10-01T00:26:57.766Z,92.41
2022-10-01T00:27:29.859Z,92.40
2022-10-01T00:28:01.582Z,92.33
2022-10-01T00:28:32.915Z,92.53
2022-10-01T00:29:07.572Z,92.32
2022-10-01T00:29:40.621Z,92.29
2022-10-01T00:30:12.386Z,92.19
2022-10-01T00:30:48.163Z,92.73
2022-10-01T00:31:19.579Z,92.45
2022-10-01T00:31:51.056Z,92.92
2022-10-01T00:32:22.991Z,92.67
2022-10-01T00:32:54.996Z,92.82
2022-10-01T00:33:26.381Z,92.74
2022-10-01T00:34:02.540Z,92.94
2022-10-01T00:34:33.865Z,93.28
2022-10-01T00:35:09.407Z,93.24
2022-10-01T00:35:40.732Z,93.26
2022-10-01T00:36:12.109Z,93.13
2022-10-01T00:36:43.488Z,93.47
2022-10-01T00:37:15.501Z,93.16
2022-10-01T00:37:49.182Z,93.21
2022-10-01T00:38:20.577Z,93.06
2022-10-01T00:38:52.001Z,93.31
2022-10-01T00:39:23.689Z,92.98
2022-10-01T00:39:55.140Z,93.18
2022-10-01T00:40:26.545Z,93.21
2022-10-01T00:40:58.502Z,93.21
2022-10-01T00:41:33.164Z,93.23
2022-10-01T00:42:20.493Z,93.51
2022-10-01T00:42:51.838Z,93.25
2022-10-01T00:43:29.250Z,93.24
2022-10-01T00:44:32.322Z,93.16
2022-10-01T00:45:04.016Z,93.11
2022-10-01T00:45:35.963Z,93.24
2022-10-01T00:46:15.660Z,93.20
2022-10-01T00:46:47.163Z,93.32
2022-10-01T00:47:37.085Z,93.33
2022-10-01T00:48:08.407Z,93.11
2022-10-01T00:48:47.935Z,93.42
2022-10-01T00:49:26.692Z,93.39
2022-10-01T00:50:10.492Z,93.31
2022-10-01T00:50:42.111Z,93.33
2022-10-01T00:51:13.957Z,93.40
2022-10-01T00:51:52.311Z,93.69
2022-10-01T00:52:28.924Z,93.59
2022-10-01T00:53:04.876Z,93.47
2022-10-01T00:53:37.752Z,93.28
2022-10-01T00:54:13.641Z,93.48
2022-10-01T00:54:50.721Z,93.54
2022-10-01T00:55:37.654Z,93.69
2022-10-01T00:56:09.068Z,93.64
2022-10-01T00:56:42.956Z,93.66
2022-10-01T00:57:18.617Z,93.78
2022-10-01T00:57:50.757Z,93.82
2022-10-01T00:58:24.073Z,94.08
2022-10-01T00:58:55.983Z,94.25
2022-10-01T00:59:28.901Z,94.24
2022-10-01T01:00:04.766Z,94.16
2022-10-01T01:00:37.830Z,94.00
2022-10-01T01:01:10.192Z,93.95
2022-10-01T01:01:42.039Z,94.25
2022-10-01T01:02:13.490Z,94.54
2022-10-01T01:02:44.980Z,94.00
2022-10-01T01:03:16.895Z,94.23
2022-10-01T01:03:48.615Z,94.37
2022-10-01T01:04:20.162Z,94.55
2022-10-01T01:04:51.519Z,93.97
2022-10-01T01:05:23.130Z,94.21
2022-10-01T01:05:54.501Z,94.20
2022-10-01T01:06:25.873Z,94.25
2022-10-01T01:06:59.890Z,94.56
2022-10-01T01:07:33.615Z,94.36
2022-10-01T01:08:06.097Z,94.66
2022-10-01T01:08:37.559Z,94.40
2022-10-01T01:09:09.181Z,94.36
2022-10-01T01:09:48.223Z,94.32
2022-10-01T01:10:30.072Z,94.41
2022-10-01T01:11:16.117Z,94.45
2022-10-01T01:11:58.356Z,94.47
2022-10-01T01:12:45.248Z,94.50
2022-10-01T01:13:37.940Z,94.54
2022-10-01T01:14:14.470Z,94.48
2022-10-01T01:15:21.544Z,94.52
2022-10-01T01:16:06.098Z,94.46
2022-10-01T01:16:47.265Z,94.77
2022-10-01T01:17:39.459Z,94.41
2022-10-01T01:18:18.900Z,94.24
2022-10-01T01:18:56.771Z,94.56
2022-10-01T01:19:52.544Z,94.46
2022-10-01T01:20:45.365Z,94.28
2022-10-01T01:21:24.547Z,94.68
2022-10-01T01:22:02.977Z,94.44
2022-10-01T01:22:39.127Z,94.72
2022-10-01T01:23:16.289Z,94.36
2022-10-01T01:24:13.057Z,94.68
2022-10-01T01:24:56.107Z,94.58
2022-10-01T01:25:40.879Z,94.33
2022-10-01T01:26:31.529Z,94.58
2022-10-01T01:27:29.396Z,94.52
2022-10-01T01:28:18.943Z,94.55
2022-10-01T01:29:01.136Z,94.65
2022-10-01T01:29:50.047Z,94.57
2022-10-01T01:30:21.438Z,94.51
2022-10-01T01:30:56.897Z,94.94
2022-10-01T01:31:36.223Z,95.04
2022-10-01T01:32:18.205Z,94.94
2022-10-01T01:33:12.804Z,95.10
2022-10-01T01:33:47.971Z,95.11
2022-10-01T01:34:24.326Z,95.18
2022-10-01T01:35:02.096Z,95.03
2022-10-01T01:35:39.345Z,94.80
2022-10-01T01:36:16.251Z,94.98
2022-10-01T01:36:58.505Z,94.91
2022-10-01T01:37:37.901Z,94.67
2022-10-01T01:38:14.458Z,94.94
2022-10-01T01:38:54.972Z,94.92
2022-10-01T01:39:29.819Z,94.85
2022-10-01T01:40:03.558Z,95.21
2022-10-01T01:40:37.793Z,95.17
2022-10-01T01:41:11.493Z,94.72
2022-10-01T01:41:49.939Z,95.20
2022-10-01T01:42:36.704Z,95.04
2022-10-01T01:43:13.956Z,95.17
2022-10-01T01:43:49.538Z,94.93
2022-10-01T01:44:25.723Z,95.04
2022-10-01T01:45:00.908Z,95.17
2022-10-01T01:45:34.259Z,94.81
2022-10-01T01:46:10.296Z,94.99
2022-10-01T01:46:46.172Z,95.10
2022-10-01T01:47:20.184Z,95.29
2022-10-01T01:47:57.680Z,95.20
2022-10-01T01:48:31.084Z,95.09
2022-10-01T01:49:05.210Z,95.05
2022-10-01T01:49:38.662Z,95.04
2022-10-01T01:50:13.718Z,95.00
2022-10-01T01:50:52.492Z,94.78
2022-10-01T01:51:41.097Z,95.34
2022-10-01T01:52:15.909Z,95.27
2022-10-01T01:52:47.440Z,95.37
2022-10-01T01:53:20.140Z,95.06
2022-10-01T01:53:51.929Z,94.97
2022-10-01T01:54:23.291Z,95.27
2022-10-01T01:54:55.394Z,95.28
2022-10-01T01:55:29.933Z,95.25
2022-10-01T01:56:01.962Z,95.39
2022-10-01T01:56:34.419Z,95.45
2022-10-01T01:57:06.777Z,95.68
2022-10-01T01:57:43.506Z,95.65
2022-10-01T01:58:16.954Z,95.56
2022-10-01T01:58:49.263Z,95.86
2022-10-01T01:59:20.720Z,95.72
2022-10-01T01:59:54.170Z,95.58
2022-10-01T02:00:25.612Z,95.43
2022-10-01T02:00:56.955Z,95.57
2022-10-01T02:01:41.958Z,95.69
2022-10-01T02:02:25.625Z,95.43
2022-10-01T02:02:57.935Z,96.04
2022-10-01T02:03:30.700Z,95.63
2022-10-01T02:04:43.631Z,95.62
2022-10-01T02:05:19.935Z,95.73
2022-10-01T02:06:19.010Z,95.66
2022-10-01T02:07:03.212Z,95.58
2022-10-01T02:08:15.339Z,95.56
2022-10-01T02:08:57.815Z,95.81
2022-10-01T02:09:41.746Z,95.57
2022-10-01T02:10:45.088Z,96.01
2022-10-01T02:11:23.149Z,95.87
2022-10-01T02:12:30.208Z,96.03
2022-10-01T02:13:13.757Z,96.02
2022-10-01T02:13:45.031Z,95.95
2022-10-01T02:14:35.566Z,95.99
2022-10-01T02:15:26.032Z,95.76
2022-10-01T02:16:05.005Z,95.74
2022-10-01T02:17:01.339Z,95.98
2022-10-01T02:17:50.602Z,95.81
2022-10-01T02:18:29.464Z,95.82
2022-10-01T02:19:19.688Z,95.71
2022-10-01T02:20:02.179Z,95.83
2022-10-01T02:20:42.290Z,96.06
2022-10-01T02:21:21.491Z,95.86
2022-10-01T02:22:00.359Z,96.47
2022-10-01T02:22:42.204Z,95.79
2022-10-01T02:23:18.060Z,96.21
2022-10-01T02:23:59.077Z,96.27
2022-10-01T02:24:43.274Z,96.24
2022-10-01T02:25:18.526Z,96.01
2022-10-01T02:25:55.312Z,96.27
2022-10-01T02:26:29.728Z,96.22
2022-10-01T02:27:06.245Z,96.19
2022-10-01T02:27:50.929Z,96.06
2022-10-01T02:28:23.952Z,95.94
2022-10-01T02:29:00.768Z,96.31
2022-10-01T02:29:34.627Z,96.30
2022-10-01T02:30:09.505Z,96.56
2022-10-01T02:30:44.781Z,96.68
2022-10-01T02:31:18.472Z,96.54
2022-10-01T02:31:53.587Z,96.56
2022-10-01T02:32:26.232Z,96.62
2022-10-01T02:32:59.823Z,96.38
2022-10-01T02:33:35.500Z,96.99
2022-10-01T02:34:12.481Z,96.35
2022-10-01T02:34:45.928Z,96.52
2022-10-01T02:35:20.119Z,96.22
2022-10-01T02:35:53.759Z,96.26
2022-10-01T02:36:27.293Z,96.45
2022-10-01T02:37:01.500Z,96.31
2022-10-01T02:37:36.565Z,96.47
2022-10-01T02:38:09.467Z,96.39
2022-10-01T02:38:43.353Z,96.09
2022-10-01T02:39:17.357Z,96.20
2022-10-01T02:39:52.188Z,96.26
2022-10-01T02:40:28.268Z,96.52
2022-10-01T02:41:05.003Z,96.29
2022-10-01T02:41:36.968Z,96.39
2022-10-01T02:42:14.020Z,96.58
2022-10-01T02:42:51.272Z,96.18
2022-10-01T02:43:29.760Z,96.31
2022-10-01T02:44:14.981Z,96.52
2022-10-01T02:44:48.391Z,96.38
2022-10-01T02:45:23.478Z,96.25
2022-10-01T02:46:00.030Z,96.15
2022-10-01T02:46:42.245Z,96.43
2022-10-01T02:47:37.765Z,96.21
2022-10-01T02:48:12.213Z,96.75
2022-10-01T02:48:44.131Z,96.27
2022-10-01T02:49:15.858Z,96.88
2022-10-01T02:49:48.392Z,96.30
2022-10-01T02:50:21.547Z,96.42
2022-10-01T02:51:01.612Z,96.83
2022-10-01T02:51:43.338Z,96.49
2022-10-01T02:52:41.644Z,96.38
2022-10-01T02:53:21.292Z,96.80
2022-10-01T02:54:00.092Z,96.84
2022-10-01T02:54:38.351Z,96.82
2022-10-01T02:55:32.137Z,96.84
2022-10-01T02:56:05.625Z,96.78
2022-10-01T02:56:56.868Z,96.68
2022-10-01T02:57:28.844Z,96.72
2022-10-01T02:58:00.170Z,96.84
2022-10-01T02:58:31.771Z,96.63
2022-10-01T02:59:07.464Z,97.14
2022-10-01T02:59:38.826Z,97.02
2022-10-01T03:00:13.884Z,96.73
2022-10-01T03:00:45.226Z,96.97
2022-10-01T03:01:16.695Z,97.00
2022-10-01T03:01:48.296Z,96.83
2022-10-01T03:02:20.979Z,96.78
2022-10-01T03:02:52.556Z,97.10
2022-10-01T03:03:26.005Z,96.99
2022-10-01T03:03:57.314Z,96.90
2022-10-01T03:04:28.675Z,97.62
2022-10-01T03:05:00.449Z,96.69
2022-10-01T03:05:31.765Z,97.10
2022-10-01T03:06:03.198Z,97.00
2022-10-01T03:06:36.081Z,96.92
2022-10-01T03:07:07.575Z,96.83
2022-10-01T03:07:40.714Z,97.03
2022-10-01T03:08:12.064Z,96.76
2022-10-01T03:08:43.483Z,97.30
2022-10-01T03:09:14.788Z,96.98
2022-10-01T03:09:46.171Z,96.97
2022-10-01T03:10:17.652Z,96.84
2022-10-01T03:10:50.371Z,96.87
2022-10-01T03:11:21.885Z,96.88
2022-10-01T03:11:53.182Z,96.75
2022-10-01T03:12:24.800Z,97.06
2022-10-01T03:12:56.410Z,97.48
2022-10-01T03:13:27.705Z,96.89
2022-10-01T03:13:59.264Z,97.00
2022-10-01T03:14:32.297Z,97.25
2022-10-01T03:15:04.777Z,97.08
2022-10-01T03:15:36.187Z,97.48
2022-10-01T03:16:07.784Z,97.15
2022-10-01T03:16:39.152Z,97.37
2022-10-01T03:17:11.033Z,97.20
2022-10-01T03:17:42.573Z,97.19
2022-10-01T03:18:13.863Z,96.58
2022-10-01T03:18:45.151Z,97.18
2022-10-01T03:19:16.501Z,97.35
2022-10-01T03:19:48.154Z,97.10
2022-10-01T03:20:19.686Z,97.30
2022-10-01T03:20:51.182Z,97.17
2022-10-01T03:21:22.681Z,97.21
2022-10-01T03:21:56.338Z,97.00
2022-10-01T03:22:27.934Z,96.96
2022-10-01T03:22:59.234Z,97.13
2022-10-01T03:23:30.558Z,97.50
2022-10-01T03:24:02.012Z,96.97
2022-10-01T03:24:33.824Z,97.47
2022-10-01T03:25:05.529Z,97.19
2022-10-01T03:25:37.194Z,97.37
2022-10-01T03:26:08.641Z,97.10
2022-10-01T03:26:41.415Z,97.34
2022-10-01T03:27:12.751Z,97.60
2022-10-01T03:27:44.456Z,97.17
2022-10-01T03:28:16.058Z,97.36
2022-10-01T03:28:47.416Z,97.02
2022-10-01T03:29:18.717Z,97.25
2022-10-01T03:29:50.400Z,97.07
2022-10-01T03:30:22.103Z,97.13
2022-10-01T03:31:04.640Z,97.09
2022-10-01T03:31:37.641Z,97.33
2022-10-01T03:32:09.361Z,97.02
2022-10-01T03:32:40.911Z,96.96
2022-10-01T03:33:12.261Z,97.39
2022-10-01T03:33:43.670Z,97.35
2022-10-01T03:34:15.007Z,97.26
2022-10-01T03:34:46.384Z,97.20
2022-10-01T03:35:18.294Z,97.20
2022-10-01T03:35:49.605Z,97.14
2022-10-01T03:36:20.977Z,97.52
2022-10-01T03:36:52.699Z,97.69
2022-10-01T03:37:24.474Z,97.21
2022-10-01T03:37:55.897Z,97.19
2022-10-01T03:38:27.453Z,97.42
2022-10-01T03:38:59.068Z,97.76
2022-10-01T03:39:30.603Z,97.46
2022-10-01T03:40:02.281Z,97.59
2022-10-01T03:40:37.779Z,97.37
2022-10-01T03:41:09.140Z,97.51
2022-10-01T03:41:40.616Z,97.67
2022-10-01T03:42:11.987Z,97.40
2022-10-01T03:42:43.496Z,97.08
2022-10-01T03:43:14.805Z,97.40
2022-10-01T03:43:46.145Z,97.62
2022-10-01T03:44:17.717Z,97.35
2022-10-01T03:44:49.091Z,97.50
2022-10-01T03:45:20.427Z,97.61
2022-10-01T03:45:51.832Z,97.32
2022-10-01T03:46:23.238Z,97.26
2022-10-01T03:46:55.026Z,97.46
2022-10-01T03:47:26.333Z,97.09
2022-10-01T03:47:57.644Z,97.33
2022-10-01T03:48:29.671Z,97.74
2022-10-01T03:49:01.200Z,97.38
2022-10-01T03:49:33.756Z,97.59
2022-10-01T03:50:05.651Z,97.97
2022-10-01T03:50:36.973Z,97.60
2022-10-01T03:51:08.313Z,97.79
2022-10-01T03:51:40.153Z,97.86
2022-10-01T03:52:11.470Z,97.49
2022-10-01T03:52:44.841Z,97.66
2022-10-01T03:53:16.518Z,97.63
2022-10-01T03:53:47.950Z,97.59
2022-10-01T03:54:20.238Z,97.36
2022-10-01T03:54:51.557Z,97.42
2022-10-01T03:55:24.232Z,97.51
2022-10-01T03:55:55.658Z,97.90
2022-10-01T03:56:27.186Z,97.65
2022-10-01T03:56:59.270Z,97.47
2022-10-01T03:57:30.580Z,97.60
2022-10-01T03:58:02.171Z,97.38
2022-10-01T03:58:33.992Z,97.51
2022-10-01T03:59:05.333Z,97.47
2022-10-01T03:59:36.681Z,97.59
2022-10-01T04:00:09.635Z,97.35
2022-10-01T04:00:41.620Z,97.86
2022-10-01T04:01:13.070Z,97.58
2022-10-01T04:01:44.456Z,97.69
2022-10-01T04:02:15.897Z,97.59
2022-10-01T04:02:47.374Z,97.78
2022-10-01T04:03:18.885Z,97.63
2022-10-01T04:03:50.240Z,97.41
2022-10-01T04:04:21.618Z,97.63
2022-10-01T04:04:52.976Z,97.48
2022-10-01T04:05:25.699Z,97.55
2022-10-01T04:05:57.300Z,97.33
2022-10-01T04:06:28.598Z,97.70
2022-10-01T04:06:59.912Z,97.76
2022-10-01T04:07:31.213Z,97.65
2022-10-01T04:08:02.739Z,97.84
2022-10-01T04:08:34.049Z,97.81
2022-10-01T04:09:05.369Z,97.57
2022-10-01T04:09:37.497Z,97.52
2022-10-01T04:10:09.276Z,97.85
2022-10-01T04:10:41.482Z,97.78
2022-10-01T04:11:12.869Z,97.65
2022-10-01T04:11:44.400Z,97.49
2022-10-01T04:12:15.738Z,97.56
2022-10-01T04:12:47.121Z,97.76
2022-10-01T04:13:19.076Z,97.88
2022-10-01T04:13:50.752Z,97.76
2022-10-01T04:14:22.113Z,97.62
2022-10-01T04:14:53.429Z,97.63
2022-10-01T04:15:25.281Z,98.00
2022-10-01T04:15:56.716Z,97.76
2022-10-01T04:16:28.284Z,97.84
2022-10-01T04:17:00.234Z,97.97
2022-10-01T04:17:32.036Z,97.91
2022-10-01T04:18:05.634Z,97.57
2022-10-01T04:18:36.979Z,97.73
2022-10-01T04:19:08.311Z,97.98
2022-10-01T04:19:39.642Z,97.41
2022-10-01T04:20:11.015Z,97.64
2022-10-01T04:20:42.358Z,97.88
2022-10-01T04:21:15.472Z,97.59
2022-10-01T04:21:46.861Z,97.90
2022-10-01T04:22:18.422Z,97.61
2022-10-01T04:22:49.836Z,98.06
2022-10-01T04:23:22.417Z,97.64
2022-10-01T04:23:54.455Z,97.98
2022-10-01T04:24:25.802Z,98.11
2022-10-01T04:24:57.146Z,97.53
2022-10-01T04:25:28.682Z,97.66
2022-10-01T04:26:03.430Z,97.68
2022-10-01T04:26:34.940Z,97.57
2022-10-01T04:27:06.240Z,97.98
2022-10-01T04:27:39.040Z,97.69
2022-10-01T04:28:12.722Z,97.83
2022-10-01T04:28:46.326Z,97.62
2022-10-01T04:29:17.635Z,97.54
2022-10-01T04:29:48.949Z,97.85
2022-10-01T04:30:21.059Z,97.58
2022-10-01T04:31:12.415Z,97.79
2022-10-01T04:31:43.811Z,98.05
2022-10-01T04:32:17.021Z,97.94
2022-10-01T04:32:48.393Z,98.06
2022-10-01T04:33:19.834Z,97.56
2022-10-01T04:33:56.500Z,97.69
2022-10-01T04:34:47.782Z,97.87
2022-10-01T04:35:19.200Z,97.54
2022-10-01T04:35:50.489Z,97.46
2022-10-01T04:36:22.237Z,97.30
2022-10-01T04:36:53.573Z,97.43
2022-10-01T04:37:27.286Z,97.43
2022-10-01T04:38:01.873Z,97.78
2022-10-01T04:38:33.679Z,97.67
2022-10-01T04:39:05.207Z,97.84
2022-10-01T04:39:36.535Z,97.45
2022-10-01T04:40:09.569Z,97.83
2022-10-01T04:40:41.693Z,97.31
2022-10-01T04:41:14.742Z,97.36
2022-10-01T04:41:46.027Z,97.77
2022-10-01T04:42:17.612Z,97.65
2022-10-01T04:42:48.977Z,97.72
2022-10-01T04:43:20.302Z,97.65
2022-10-01T04:43:51.761Z,97.74
2022-10-01T04:44:23.313Z,97.69
2022-10-01T04:44:54.817Z,97.93
2022-10-01T04:45:26.735Z,97.93
2022-10-01T04:45:58.475Z,97.71
2022-10-01T04:46:30.400Z,97.70
2022-10-01T04:47:02.032Z,97.84
2022-10-01T04:47:37.360Z,97.89
2022-10-01T04:48:09.190Z,98.06
2022-10-01T04:48:41.072Z,97.64
2022-10-01T04:49:12.384Z,97.59
2022-10-01T04:49:43.744Z,97.80
2022-10-01T04:50:16.613Z,97.94
2022-10-01T04:50:47.917Z,98.04
2022-10-01T04:51:19.441Z,97.57
2022-10-01T04:51:50.752Z,97.86
2022-10-01T04:52:22.102Z,97.64
2022-10-01T04:52:54.137Z,97.96
2022-10-01T04:53:25.479Z,98.03
2022-10-01T04:53:56.848Z,98.09
2022-10-01T04:54:28.393Z,97.70
2022-10-01T04:54:59.891Z,97.83
2022-10-01T04:55:31.247Z,97.81
2022-10-01T04:56:02.738Z,97.89
2022-10-01T04:56:34.049Z,97.84
2022-10-01T04:57:05.446Z,98.40
2022-10-01T04:57:38.566Z,98.36
2022-10-01T04:58:10.399Z,98.02
2022-10-01T04:58:41.860Z,98.35
2022-10-01T04:59:13.214Z,97.80
2022-10-01T04:59:45.768Z,98.42
2022-10-01T05:00:20.558Z,97.99
2022-10-01T05:00:52.459Z,97.95
2022-10-01T05:01:23.868Z,98.13
2022-10-01T05:01:55.497Z,98.20
2022-10-01T05:02:26.960Z,98.18
2022-10-01T05:02:58.415Z,98.14
2022-10-01T05:03:29.800Z,98.25
2022-10-01T05:04:01.640Z,98.07
2022-10-01T05:04:32.951Z,97.89
2022-10-01T05:05:06.521Z,97.73
2022-10-01T05:05:38.852Z,97.90
2022-10-01T05:06:10.164Z,97.80
2022-10-01T05:06:41.683Z,97.81
2022-10-01T05:07:12.982Z,98.34
2022-10-01T05:07:44.608Z,97.99
2022-10-01T05:08:15.928Z,98.47
2022-10-01T05:08:48.761Z,98.02
2022-10-01T05:09:20.103Z,97.85
2022-10-01T05:09:51.650Z,97.94
2022-10-01T05:10:23.539Z,98.05
2022-10-01T05:10:55.059Z,98.16
2022-10-01T05:11:26.485Z,97.88
2022-10-01T05:11:57.917Z,98.16
2022-10-01T05:12:29.250Z,97.76
2022-10-01T05:13:02.336Z,97.72
2022-10-01T05:13:33.692Z,98.23
2022-10-01T05:14:05.335Z,98.18
2022-10-01T05:14:36.672Z,98.03
2022-10-01T05:15:09.141Z,97.95
2022-10-01T05:15:41.216Z,97.88
2022-10-01T05:16:12.585Z,97.92
2022-10-01T05:16:44.137Z,97.82
2022-10-01T05:17:17.165Z,97.66
2022-10-01T05:17:48.513Z,97.77
2022-10-01T05:18:19.828Z,97.95
2022-10-01T05:18:51.185Z,97.96
2022-10-01T05:19:25.287Z,97.80
2022-10-01T05:19:59.305Z,97.93
2022-10-01T05:20:30.895Z,97.85
2022-10-01T05:21:07.113Z,97.58
2022-10-01T05:21:38.480Z,97.55
2022-10-01T05:22:10.036Z,97.65
2022-10-01T05:22:41.625Z,97.62
2022-10-01T05:23:13.011Z,98.02
2022-10-01T05:23:44.404Z,97.89
2022-10-01T05:24:16.004Z,97.95
2022-10-01T05:24:47.811Z,97.63
2022-10-01T05:25:19.943Z,97.98
2022-10-01T05:25:51.271Z,97.72
2022-10-01T05:26:23.038Z,98.06
2022-10-01T05:26:54.444Z,97.97
2022-10-01T05:27:27.237Z,97.86
2022-10-01T05:28:05.664Z,97.57
2022-10-01T05:28:37.423Z,97.66
2022-10-01T05:29:09.010Z,97.86
2022-10-01T05:29:41.502Z,98.09
2022-10-01T05:30:14.751Z,97.96
2022-10-01T05:30:46.415Z,97.82
2022-10-01T05:31:18.895Z,97.48
2022-10-01T05:31:50.358Z,97.79
2022-10-01T05:32:21.939Z,97.74
2022-10-01T05:32:55.548Z,97.78
2022-10-01T05:33:27.988Z,98.01
2022-10-01T05:33:59.299Z,97.70
2022-10-01T05:34:30.778Z,97.66
2022-10-01T05:35:02.838Z,97.64
2022-10-01T05:35:34.245Z,97.81
2022-10-01T05:36:07.034Z,97.56
2022-10-01T05:36:38.491Z,97.82
2022-10-01T05:37:10.858Z,98.11
2022-10-01T05:37:42.174Z,97.80
2022-10-01T05:38:13.506Z,97.59
2022-10-01T05:38:48.249Z,98.10
2022-10-01T05:39:19.613Z,97.38
2022-10-01T05:39:50.944Z,97.63
2022-10-01T05:40:24.246Z,97.33
2022-10-01T05:40:55.615Z,97.90
2022-10-01T05:41:26.978Z,97.69
2022-10-01T05:42:02.617Z,97.64
2022-10-01T05:42:36.779Z,97.82
2022-10-01T05:43:09.274Z,97.83
2022-10-01T05:43:40.594Z,97.60
2022-10-01T05:44:11.927Z,97.52
2022-10-01T05:44:46.025Z,97.41
2022-10-01T05:45:19.565Z,97.39
2022-10-01T05:45:51.378Z,97.38
2022-10-01T05:46:22.760Z,97.26
2022-10-01T05:46:54.130Z,97.42
2022-10-01T05:47:25.616Z,97.50
2022-10-01T05:48:02.301Z,97.57
2022-10-01T05:48:36.941Z,97.61
2022-10-01T05:49:08.598Z,97.55
2022-10-01T05:49:42.820Z,97.47
2022-10-01T05:50:14.548Z,97.44
2022-10-01T05:50:46.529Z,97.04
2022-10-01T05:51:17.942Z,97.72
2022-10-01T05:51:49.573Z,97.58
2022-10-01T05:52:21.078Z,97.26
2022-10-01T05:52:54.569Z,97.38
2022-10-01T05:53:25.991Z,97.17
2022-10-01T05:53:59.018Z,97.13
2022-10-01T05:54:30.412Z,97.23
2022-10-01T05:55:01.732Z,97.18
2022-10-01T05:55:37.385Z,97.00
2022-10-01T05:56:09.489Z,97.54
2022-10-01T05:56:40.796Z,96.87
2022-10-01T05:57:12.232Z,97.11
2022-10-01T05:57:43.596Z,96.99
2022-10-01T05:58:15.996Z,97.17
2022-10-01T05:58:47.993Z,97.35
2022-10-01T05:59:19.296Z,96.92
2022-10-01T05:59:50.590Z,97.09
2022-10-01T06:00:22.866Z,96.77
2022-10-01T06:00:55.726Z,96.72
2022-10-01T06:01:27.434Z,97.15
2022-10-01T06:01:59.179Z,96.92
2022-10-01T06:02:30.751Z,96.97
2022-10-01T06:03:03.709Z,96.82
2022-10-01T06:03:35.989Z,96.92
2022-10-01T06:04:09.025Z,97.15
2022-10-01T06:04:41.385Z,97.27
2022-10-01T06:05:12.761Z,97.27
2022-10-01T06:05:44.624Z,97.21
2022-10-01T06:06:15.973Z,97.38
2022-10-01T06:06:47.379Z,97.63
2022-10-01T06:07:18.724Z,97.24
2022-10-01T06:07:50.531Z,97.58
2022-10-01T06:08:22.424Z,97.03
2022-10-01T06:08:54.384Z,96.90
2022-10-01T06:09:26.236Z,97.32
2022-10-01T06:09:57.517Z,96.76
2022-10-01T06:10:30.126Z,97.13
2022-10-01T06:11:02.286Z,97.12
2022-10-01T06:11:36.417Z,96.95
2022-10-01T06:12:09.692Z,97.26
2022-10-01T06:12:43.111Z,97.04
2022-10-01T06:13:20.345Z,96.74
2022-10-01T06:13:51.641Z,96.96
2022-10-01T06:14:22.967Z,96.95
2022-10-01T06:14:54.346Z,97.09
2022-10-01T06:15:25.676Z,97.03
2022-10-01T06:15:57.026Z,96.98
2022-10-01T06:16:28.607Z,97.23
2022-10-01T06:16:59.926Z,97.05
2022-10-01T06:17:31.257Z,96.83
2022-10-01T06:18:03.933Z,96.91
2022-10-01T06:18:35.241Z,97.28
2022-10-01T06:19:06.578Z,97.27
2022-10-01T06:19:37.883Z,96.74
2022-10-01T06:20:17.388Z,97.03
2022-10-01T06:20:48.774Z,97.03
2022-10-01T06:21:20.102Z,97.02
2022-10-01T06:21:51.931Z,97.06
2022-10-01T06:22:23.328Z,97.28
2022-10-01T06:22:56.259Z,97.01
2022-10-01T06:23:27.851Z,97.22
2022-10-01T06:23:59.249Z,97.04
2022-10-01T06:24:31.856Z,97.05
2022-10-01T06:25:03.521Z,96.75
2022-10-01T06:25:35.000Z,97.17
2022-10-01T06:26:06.568Z,97.54
2022-10-01T06:26:37.973Z,97.46
2022-10-01T06:27:10.325Z,97.32
2022-10-01T06:27:41.768Z,97.13
2022-10-01T06:28:14.485Z,97.44
2022-10-01T06:28:48.692Z,97.40
2022-10-01T06:29:20.044Z,97.33
2022-10-01T06:29:51.344Z,97.43
2022-10-01T06:30:22.797Z,97.42
2022-10-01T06:30:54.105Z,97.72
2022-10-01T06:31:25.438Z,97.85
2022-10-01T06:31:57.337Z,97.81
2022-10-01T06:32:31.636Z,97.47
2022-10-01T06:33:14.585Z,97.25
2022-10-01T06:33:45.931Z,97.23
2022-10-01T06:34:17.269Z,97.38
2022-10-01T06:34:48.575Z,97.33
2022-10-01T06:35:20.997Z,97.39
2022-10-01T06:35:52.618Z,97.08
2022-10-01T06:36:24.070Z,97.58
2022-10-01T06:36:55.382Z,97.21
2022-10-01T06:37:26.860Z,97.12
2022-10-01T06:37:58.952Z,97.25
2022-10-01T06:38:31.026Z,97.00
2022-10-01T06:39:02.419Z,97.15
2022-10-01T06:39:33.797Z,97.33
2022-10-01T06:40:06.253Z,97.27
2022-10-01T06:40:39.370Z,97.33
2022-10-01T06:41:14.046Z,97.21
2022-10-01T06:41:47.526Z,96.93
2022-10-01T06:42:18.849Z,97.20
2022-10-01T06:42:54.881Z,97.42
2022-10-01T06:43:29.997Z,97.49
2022-10-01T06:44:01.885Z,97.58
2022-10-01T06:44:33.210Z,97.89
2022-10-01T06:45:05.024Z,97.57
2022-10-01T06:45:39.175Z,97.63
2022-10-01T06:46:11.107Z,97.47
2022-10-01T06:46:54.038Z,97.32
2022-10-01T06:47:25.480Z,97.76
2022-10-01T06:48:03.566Z,97.84
2022-10-01T06:48:36.416Z,97.64
2022-10-01T06:49:08.082Z,97.44
2022-10-01T06:49:39.541Z,97.82
2022-10-01T06:50:11.310Z,97.46
2022-10-01T06:50:44.501Z,97.60
2022-10-01T06:51:15.842Z,97.77
2022-10-01T06:52:05.896Z,97.57
2022-10-01T06:52:49.697Z,97.57
2022-10-01T06:53:21.025Z,97.90
2022-10-01T06:53:52.375Z,97.44
2022-10-01T06:54:26.158Z,97.69
2022-10-01T06:55:00.147Z,97.90
2022-10-01T06:55:33.682Z,98.32
2022-10-01T06:56:06.922Z,98.04
2022-10-01T06:56:38.253Z,98.07
2022-10-01T06:57:09.611Z,98.17
2022-10-01T06:57:40.985Z,98.22
2022-10-01T06:58:20.984Z,97.92
2022-10-01T06:58:52.570Z,98.42
2022-10-01T06:59:24.112Z,98.32
2022-10-01T06:59:55.915Z,97.86
2022-10-01T07:00:29.609Z,97.95
2022-10-01T07:01:03.146Z,98.30
2022-10-01T07:01:36.496Z,98.22
2022-10-01T07:02:20.066Z,97.88
2022-10-01T07:02:51.945Z,98.06
2022-10-01T07:03:23.445Z,98.17
2022-10-01T07:03:55.366Z,97.93
2022-10-01T07:04:26.714Z,98.44
2022-10-01T07:05:01.514Z,98.04
2022-10-01T07:05:32.837Z,98.48
2022-10-01T07:06:05.717Z,97.84
2022-10-01T07:06:37.027Z,98.55
2022-10-01T07:07:08.332Z,98.61
2022-10-01T07:07:39.741Z,98.28
2022-10-01T07:08:11.586Z,98.98
2022-10-01T07:08:43.475Z,98.73
2022-10-01T07:09:14.808Z,98.37
2022-10-01T07:09:49.163Z,98.90
2022-10-01T07:10:21.986Z,99.09
2022-10-01T07:10:53.561Z,98.91
2022-10-01T07:11:25.195Z,98.85
2022-10-01T07:11:57.391Z,98.71
2022-10-01T07:12:31.549Z,98.49
2022-10-01T07:13:13.055Z,98.76
2022-10-01T07:13:44.547Z,98.44
2022-10-01T07:14:15.923Z,98.72
2022-10-01T07:14:49.834Z,98.55
2022-10-01T07:15:25.617Z,98.94
2022-10-01T07:15:57.125Z,99.00
2022-10-01T07:16:28.810Z,99.17
2022-10-01T07:17:00.553Z,98.90
2022-10-01T07:17:32.443Z,99.04
2022-10-01T07:18:04.803Z,98.87
2022-10-01T07:18:37.048Z,99.16
2022-10-01T07:19:08.533Z,98.96
2022-10-01T07:19:39.858Z,98.62